createdAt,value
2018-08-19T00:01:31.591Z,21.46
2018-08-19T00:04:00.565Z,21.43
2018-08-19T00:06:29.399Z,21.39
2018-08-19T00:09:02.342Z,21.37
2018-08-19T00:11:31.224Z,21.39
2018-08-19T00:14:00.039Z,21.41
2018-08-19T00:16:29.238Z,21.40
2018-08-19T00:18:58.074Z,21.36
2018-08-19T00:21:26.951Z,21.30
2018-08-19T00:23:55.792Z,21.26
2018-08-19T00:26:24.594Z,21.20
2018-08-19T00:28:53.430Z,21.17
2018-08-19T00:31:22.218Z,21.10
2018-08-19T00:33:51.115Z,21.08
2018-08-19T00:36:26.891Z,21.08
2018-08-19T00:38:56.520Z,21.05
2018-08-19T00:41:25.543Z,21.02
2018-08-19T00:43:54.398Z,21.01
2018-08-19T00:46:32.101Z,20.98
2018-08-19T00:49:01.603Z,20.98
2018-08-19T00:51:30.446Z,20.91
2018-08-19T00:53:59.266Z,20.91
2018-08-19T00:56:28.095Z,20.89
2018-08-19T00:58:57.003Z,20.86
2018-08-19T01:01:32.962Z,20.81
2018-08-19T01:04:01.842Z,20.80
2018-08-19T01:06:33.744Z,20.80
2018-08-19T01:09:02.585Z,20.79
2018-08-19T01:11:36.637Z,20.76
2018-08-19T01:14:09.761Z,20.73
2018-08-19T01:16:38.602Z,20.72
2018-08-19T01:19:08.113Z,20.69
2018-08-19T01:21:37.365Z,20.69
2018-08-19T01:24:10.882Z,20.63
2018-08-19T01:26:41.083Z,20.63
2018-08-19T01:29:11.111Z,20.60
2018-08-19T01:31:40.027Z,20.56
2018-08-19T01:34:11.118Z,20.54
2018-08-19T01:36:39.995Z,20.49
2018-08-19T01:39:11.785Z,20.47
2018-08-19T01:41:41.392Z,20.46
2018-08-19T01:44:14.781Z,20.46
2018-08-19T01:46:48.156Z,20.46
2018-08-19T01:49:16.959Z,20.45
2018-08-19T01:51:46.490Z,20.45
2018-08-19T01:54:20.540Z,20.43
2018-08-19T01:56:56.680Z,20.39
2018-08-19T01:59:34.661Z,20.38
2018-08-19T02:02:05.104Z,20.40
2018-08-19T02:04:35.688Z,20.47
2018-08-19T02:07:04.632Z,20.49
2018-08-19T02:09:33.504Z,20.55
2018-08-19T02:12:02.360Z,20.55
2018-08-19T02:14:31.267Z,20.53
2018-08-19T02:17:00.188Z,20.52
2018-08-19T02:19:29.007Z,20.46
2018-08-19T02:21:57.796Z,20.42
2018-08-19T02:24:26.635Z,20.38
2018-08-19T02:26:55.466Z,20.31
2018-08-19T02:29:33.450Z,20.27
2018-08-19T02:32:03.454Z,20.26
2018-08-19T02:34:37.275Z,20.26
2018-08-19T02:37:13.708Z,20.24
2018-08-19T02:39:44.562Z,20.24
2018-08-19T02:42:25.306Z,20.16
2018-08-19T02:44:58.479Z,20.10
2018-08-19T02:47:27.632Z,20.08
2018-08-19T02:49:56.454Z,20.07
2018-08-19T02:52:28.482Z,20.00
2018-08-19T02:54:59.363Z,19.98
2018-08-19T02:57:29.098Z,19.97
2018-08-19T02:59:58.796Z,19.95
2018-08-19T03:02:34.601Z,19.91
2018-08-19T03:05:06.553Z,19.89
2018-08-19T03:07:35.422Z,19.88
2018-08-19T03:10:09.811Z,19.85
2018-08-19T03:12:38.987Z,19.79
2018-08-19T03:15:09.076Z,19.80
2018-08-19T03:17:38.185Z,19.77
2018-08-19T03:20:09.729Z,19.75
2018-08-19T03:22:38.575Z,19.74
2018-08-19T03:25:08.208Z,19.70
2018-08-19T03:27:37.071Z,19.62
2018-08-19T03:30:10.798Z,19.58
2018-08-19T03:32:49.367Z,19.62
2018-08-19T03:35:19.989Z,19.62
2018-08-19T03:37:51.263Z,19.67
2018-08-19T03:40:20.775Z,19.71
2018-08-19T03:42:49.567Z,19.73
2018-08-19T03:45:19.012Z,19.70
2018-08-19T03:47:48.421Z,19.64
2018-08-19T03:50:22.072Z,19.65
2018-08-19T03:52:51.750Z,19.65
2018-08-19T03:55:25.926Z,19.62
2018-08-19T03:57:59.530Z,19.62
2018-08-19T04:00:30.394Z,19.66
2018-08-19T04:02:59.188Z,19.69
2018-08-19T04:05:42.166Z,19.69
2018-08-19T04:08:12.634Z,19.66
2018-08-19T04:10:42.523Z,19.70
2018-08-19T04:13:45.336Z,19.73
2018-08-19T04:16:14.242Z,19.83
2018-08-19T04:18:45.207Z,19.87
2018-08-19T04:21:15.277Z,19.95
2018-08-19T04:23:47.108Z,20.04
2018-08-19T04:26:15.904Z,20.18
2018-08-19T04:28:45.563Z,20.48
2018-08-19T04:31:19.754Z,21.08
2018-08-19T04:33:49.267Z,21.76
2018-08-19T04:36:19.432Z,22.42
2018-08-19T04:38:48.238Z,22.91
2018-08-19T04:41:17.195Z,23.26
2018-08-19T04:43:46.705Z,23.67
2018-08-19T04:46:15.571Z,24.25
2018-08-19T04:48:46.259Z,24.76
2018-08-19T04:51:15.082Z,25.19
2018-08-19T04:53:43.942Z,25.54
2018-08-19T04:56:12.773Z,25.86
2018-08-19T04:58:41.610Z,26.18
2018-08-19T05:01:11.013Z,26.58
2018-08-19T05:03:39.883Z,26.85
2018-08-19T05:06:08.703Z,27.00
2018-08-19T05:08:37.560Z,27.10
2018-08-19T05:11:06.422Z,27.04
2018-08-19T05:13:35.270Z,26.69
2018-08-19T05:16:04.127Z,26.16
2018-08-19T05:18:32.965Z,25.71
2018-08-19T05:21:17.066Z,25.03
2018-08-19T05:23:46.282Z,24.74
2018-08-19T05:26:15.479Z,24.49
2018-08-19T05:28:53.134Z,24.29
2018-08-19T05:31:22.019Z,24.12
2018-08-19T05:33:50.807Z,23.96
2018-08-19T05:36:19.751Z,23.84
2018-08-19T05:38:48.678Z,23.86
2018-08-19T05:41:17.530Z,23.88
2018-08-19T05:43:52.930Z,23.76
2018-08-19T05:46:21.708Z,23.72
2018-08-19T05:48:51.509Z,23.71
2018-08-19T05:51:20.307Z,23.75
2018-08-19T05:53:53.684Z,23.72
2018-08-19T05:56:22.706Z,23.71
2018-08-19T05:59:28.829Z,23.68
2018-08-19T06:01:57.774Z,23.68
2018-08-19T06:04:26.783Z,23.52
2018-08-19T06:06:59.986Z,23.48
2018-08-19T06:09:28.859Z,23.35
2018-08-19T06:11:57.783Z,23.16
2018-08-19T06:14:26.748Z,23.19
2018-08-19T06:16:56.082Z,23.21
2018-08-19T06:19:25.082Z,23.19
2018-08-19T06:21:57.822Z,23.21
2018-08-19T06:24:27.145Z,23.28
2018-08-19T06:26:56.047Z,23.27
2018-08-19T06:29:38.928Z,23.23
2018-08-19T06:32:07.852Z,23.24
2018-08-19T06:34:36.729Z,23.32
2018-08-19T06:37:06.169Z,23.49
2018-08-19T06:39:35.491Z,23.59
2018-08-19T06:42:04.344Z,23.69
2018-08-19T06:44:33.142Z,23.65
2018-08-19T06:47:02.062Z,23.65
2018-08-19T06:49:31.726Z,23.64
2018-08-19T06:52:00.509Z,23.71
2018-08-19T06:54:29.347Z,23.64
2018-08-19T06:56:58.821Z,23.71
2018-08-19T06:59:27.640Z,23.79
2018-08-19T07:01:56.474Z,23.89
2018-08-19T07:04:25.291Z,24.04
2018-08-19T07:06:54.104Z,24.19
2018-08-19T07:09:22.921Z,24.25
2018-08-19T07:12:00.532Z,24.31
2018-08-19T07:14:30.508Z,24.43
2018-08-19T07:17:00.292Z,24.57
2018-08-19T07:19:29.116Z,24.57
2018-08-19T07:22:03.064Z,24.65
2018-08-19T07:24:33.175Z,24.61
2018-08-19T07:27:02.580Z,24.66
2018-08-19T07:29:32.205Z,24.80
2018-08-19T07:32:01.593Z,24.88
2018-08-19T07:34:30.408Z,24.83
2018-08-19T07:36:59.323Z,24.86
2018-08-19T07:39:28.615Z,24.98
2018-08-19T07:41:57.616Z,25.09
2018-08-19T07:44:26.499Z,25.15
2018-08-19T07:46:55.574Z,25.17
2018-08-19T07:49:24.412Z,25.21
2018-08-19T07:51:53.268Z,25.26
2018-08-19T07:54:22.088Z,25.41
2018-08-19T07:56:50.924Z,25.46
2018-08-19T07:59:19.793Z,25.57
2018-08-19T08:01:49.138Z,25.67
2018-08-19T08:04:18.158Z,25.72
2018-08-19T08:06:46.987Z,25.74
2018-08-19T08:09:17.545Z,25.77
2018-08-19T08:11:46.351Z,25.81
2018-08-19T08:14:15.193Z,25.79
2018-08-19T08:16:49.277Z,25.81
2018-08-19T08:19:18.144Z,25.91
2018-08-19T08:21:46.955Z,25.94
2018-08-19T08:24:15.782Z,26.02
2018-08-19T08:26:51.648Z,26.12
2018-08-19T08:29:20.675Z,26.13
2018-08-19T08:31:54.622Z,26.21
2018-08-19T08:34:23.866Z,26.27
2018-08-19T08:36:56.954Z,26.26
2018-08-19T08:39:25.900Z,26.30
2018-08-19T08:41:58.444Z,26.41
2018-08-19T08:44:27.574Z,26.54
2018-08-19T08:46:58.780Z,26.63
2018-08-19T08:49:32.798Z,26.71
2018-08-19T08:52:03.464Z,26.70
2018-08-19T08:54:33.157Z,26.70
2018-08-19T08:57:01.975Z,26.74
2018-08-19T08:59:30.882Z,26.80
2018-08-19T09:01:59.740Z,26.81
2018-08-19T09:04:28.906Z,26.83
2018-08-19T09:06:57.708Z,26.90
2018-08-19T09:09:26.495Z,26.97
2018-08-19T09:11:55.325Z,27.10
2018-08-19T09:14:24.124Z,27.21
2018-08-19T09:16:53.016Z,27.32
2018-08-19T09:19:21.834Z,27.44
2018-08-19T09:21:51.195Z,27.51
2018-08-19T09:24:20.431Z,27.50
2018-08-19T09:26:53.079Z,27.66
2018-08-19T09:29:21.877Z,27.63
2018-08-19T09:31:50.690Z,27.65
2018-08-19T09:34:19.463Z,27.66
2018-08-19T09:36:48.291Z,27.72
2018-08-19T09:39:17.498Z,27.68
2018-08-19T09:41:46.415Z,27.71
2018-08-19T09:44:15.271Z,27.70
2018-08-19T09:46:44.126Z,27.71
2018-08-19T09:49:12.890Z,27.71
2018-08-19T09:51:41.665Z,27.76
2018-08-19T09:54:10.722Z,27.79
2018-08-19T09:56:39.753Z,27.84
2018-08-19T09:59:09.260Z,28.08
2018-08-19T10:01:42.263Z,28.39
2018-08-19T10:04:22.550Z,28.59
2018-08-19T10:07:04.347Z,28.69
2018-08-19T10:09:33.169Z,28.74
2018-08-19T10:12:01.960Z,28.75
2018-08-19T10:14:30.803Z,28.70
2018-08-19T10:16:59.675Z,28.75
2018-08-19T10:19:28.478Z,28.89
2018-08-19T10:21:57.381Z,28.95
2018-08-19T10:24:31.740Z,28.90
2018-08-19T10:27:01.018Z,28.78
2018-08-19T10:29:29.921Z,28.76
2018-08-19T10:32:00.941Z,28.70
2018-08-19T10:34:37.030Z,29.05
2018-08-19T10:37:06.967Z,28.90
2018-08-19T10:39:35.706Z,28.82
2018-08-19T10:42:20.456Z,28.88
2018-08-19T10:44:51.339Z,28.72
2018-08-19T10:47:21.102Z,28.69
2018-08-19T10:49:56.394Z,28.52
2018-08-19T10:52:28.420Z,28.52
2018-08-19T10:54:58.727Z,28.54
2018-08-19T10:57:27.548Z,28.65
2018-08-19T10:59:57.646Z,28.79
2018-08-19T11:02:26.693Z,28.89
2018-08-19T11:04:57.105Z,28.86
2018-08-19T11:07:26.409Z,28.98
2018-08-19T11:10:11.640Z,28.97
2018-08-19T11:12:40.387Z,28.90
2018-08-19T11:15:24.307Z,28.74
2018-08-19T11:17:53.112Z,28.79
2018-08-19T11:20:26.075Z,28.78
2018-08-19T11:22:55.561Z,28.87
2018-08-19T11:25:28.034Z,28.97
2018-08-19T11:27:57.844Z,29.03
2018-08-19T11:30:27.072Z,29.19
2018-08-19T11:32:55.914Z,29.31
2018-08-19T11:35:27.647Z,29.54
2018-08-19T11:37:56.442Z,29.74
2018-08-19T11:40:25.309Z,29.76
2018-08-19T11:42:54.060Z,29.92
2018-08-19T11:45:22.858Z,30.17
2018-08-19T11:48:01.871Z,30.24
2018-08-19T11:50:30.877Z,30.29
2018-08-19T11:52:59.682Z,30.27
2018-08-19T11:55:28.499Z,29.53
2018-08-19T11:57:57.551Z,29.38
2018-08-19T12:00:30.844Z,29.24
2018-08-19T12:02:59.890Z,28.98
2018-08-19T12:05:28.679Z,28.80
2018-08-19T12:08:00.853Z,28.61
2018-08-19T12:10:29.631Z,28.59
2018-08-19T12:13:00.402Z,28.58
2018-08-19T12:15:29.186Z,28.59
2018-08-19T12:17:57.963Z,28.64
2018-08-19T12:20:31.694Z,28.72
2018-08-19T12:23:00.578Z,28.90
2018-08-19T12:25:29.428Z,29.04
2018-08-19T12:27:58.274Z,29.28
2018-08-19T12:30:27.996Z,29.27
2018-08-19T12:33:31.466Z,29.13
2018-08-19T12:36:00.223Z,28.95
2018-08-19T12:38:29.047Z,28.95
2018-08-19T12:40:57.864Z,28.91
2018-08-19T12:43:27.118Z,28.89
2018-08-19T12:45:55.993Z,28.97
2018-08-19T12:48:24.734Z,28.99
2018-08-19T12:50:58.772Z,29.15
2018-08-19T12:53:27.595Z,29.43
2018-08-19T12:55:56.548Z,29.52
2018-08-19T12:58:25.412Z,29.46
2018-08-19T13:00:54.565Z,29.30
2018-08-19T13:03:26.737Z,29.14
2018-08-19T13:06:04.411Z,28.34
2018-08-19T13:08:33.207Z,27.76
2018-08-19T13:11:03.961Z,27.30
2018-08-19T13:13:34.007Z,27.07
2018-08-19T13:16:02.895Z,26.87
2018-08-19T13:18:36.854Z,26.65
2018-08-19T13:21:10.965Z,26.52
2018-08-19T13:23:39.807Z,26.44
2018-08-19T13:26:08.633Z,26.41
2018-08-19T13:28:39.336Z,26.47
2018-08-19T13:31:08.667Z,26.65
2018-08-19T13:33:37.566Z,26.85
2018-08-19T13:36:06.510Z,26.97
2018-08-19T13:38:37.726Z,27.18
2018-08-19T13:41:07.895Z,27.25
2018-08-19T13:43:38.147Z,27.38
2018-08-19T13:46:07.099Z,27.41
2018-08-19T13:48:35.915Z,27.53
2018-08-19T13:51:05.170Z,27.58
2018-08-19T13:53:34.009Z,27.73
2018-08-19T13:56:02.934Z,27.77
2018-08-19T13:58:31.776Z,27.87
2018-08-19T14:01:00.631Z,27.84
2018-08-19T14:03:29.399Z,27.94
2018-08-19T14:05:58.227Z,27.97
2018-08-19T14:08:26.994Z,27.88
2018-08-19T14:10:55.823Z,27.80
2018-08-19T14:13:24.634Z,27.89
2018-08-19T14:15:53.520Z,27.91
2018-08-19T14:18:22.316Z,27.85
2018-08-19T14:20:51.207Z,27.89
2018-08-19T14:23:20.019Z,27.87
2018-08-19T14:25:48.808Z,27.89
2018-08-19T14:28:17.566Z,27.89
2018-08-19T14:30:46.430Z,27.91
2018-08-19T14:33:15.414Z,28.01
2018-08-19T14:35:44.223Z,27.96
2018-08-19T14:38:13.087Z,27.96
2018-08-19T14:40:41.958Z,27.93
2018-08-19T14:43:10.806Z,27.85
2018-08-19T14:45:40.400Z,27.88
2018-08-19T14:48:09.264Z,27.85
2018-08-19T14:50:38.106Z,27.92
2018-08-19T14:53:07.015Z,27.80
2018-08-19T14:55:35.813Z,27.79
2018-08-19T14:58:05.044Z,27.81
2018-08-19T15:00:34.243Z,27.76
2018-08-19T15:03:03.027Z,27.72
2018-08-19T15:05:32.047Z,27.72
2018-08-19T15:08:06.835Z,27.77
2018-08-19T15:10:35.687Z,27.88
2018-08-19T15:13:04.505Z,27.96
2018-08-19T15:15:33.322Z,27.94
2018-08-19T15:18:02.358Z,27.97
2018-08-19T15:20:33.798Z,27.95
2018-08-19T15:23:14.260Z,27.91
2018-08-19T15:25:43.428Z,27.96
2018-08-19T15:28:12.221Z,27.92
2018-08-19T15:30:41.920Z,27.96
2018-08-19T15:33:11.779Z,27.88
2018-08-19T15:35:41.006Z,27.82
2018-08-19T15:38:10.279Z,27.80
2018-08-19T15:40:41.573Z,27.82
2018-08-19T15:43:11.643Z,27.77
2018-08-19T15:45:41.376Z,27.70
2018-08-19T15:48:10.181Z,27.63
2018-08-19T15:50:39.042Z,27.60
2018-08-19T15:53:08.853Z,27.55
2018-08-19T15:55:38.158Z,27.45
2018-08-19T15:58:07.262Z,27.39
2018-08-19T16:00:38.771Z,27.37
2018-08-19T16:03:08.481Z,27.36
2018-08-19T16:05:37.266Z,27.37
2018-08-19T16:08:06.693Z,27.37
2018-08-19T16:10:35.543Z,27.40
2018-08-19T16:13:08.858Z,27.44
2018-08-19T16:15:37.729Z,27.48
2018-08-19T16:18:06.770Z,27.50
2018-08-19T16:20:35.643Z,27.53
2018-08-19T16:23:04.437Z,27.54
2018-08-19T16:25:33.391Z,27.48
2018-08-19T16:28:02.255Z,27.45
2018-08-19T16:30:31.110Z,27.45
2018-08-19T16:32:59.931Z,27.44
2018-08-19T16:35:28.706Z,27.41
2018-08-19T16:37:57.543Z,27.36
2018-08-19T16:40:26.380Z,27.31
2018-08-19T16:42:55.171Z,27.24
2018-08-19T16:45:24.006Z,27.18
2018-08-19T16:47:52.793Z,27.13
2018-08-19T16:50:21.747Z,27.07
2018-08-19T16:52:50.709Z,26.96
2018-08-19T16:55:19.580Z,26.93
2018-08-19T16:57:48.396Z,26.84
2018-08-19T17:00:17.195Z,26.75
2018-08-19T17:02:46.095Z,26.72
2018-08-19T17:05:31.876Z,26.67
2018-08-19T17:08:00.782Z,26.54
2018-08-19T17:10:30.193Z,26.47
2018-08-19T17:12:59.688Z,26.42
2018-08-19T17:15:28.872Z,26.36
2018-08-19T17:17:57.794Z,26.28
2018-08-19T17:20:26.658Z,26.23
2018-08-19T17:22:55.463Z,26.13
2018-08-19T17:25:24.222Z,26.11
2018-08-19T17:27:53.037Z,26.06
2018-08-19T17:30:21.831Z,26.01
2018-08-19T17:33:03.016Z,25.94
2018-08-19T17:35:31.965Z,25.84
2018-08-19T17:38:00.807Z,25.80
2018-08-19T17:40:31.684Z,25.78
2018-08-19T17:43:01.130Z,25.69
2018-08-19T17:45:29.988Z,25.65
2018-08-19T17:47:58.914Z,25.58
2018-08-19T17:50:28.844Z,25.56
2018-08-19T17:52:58.991Z,25.51
2018-08-19T17:55:28.059Z,25.48
2018-08-19T17:57:58.359Z,25.46
2018-08-19T18:00:27.267Z,25.46
2018-08-19T18:02:56.219Z,25.40
2018-08-19T18:05:25.158Z,25.34
2018-08-19T18:07:54.946Z,25.33
2018-08-19T18:10:23.758Z,25.32
2018-08-19T18:12:52.851Z,25.34
2018-08-19T18:15:23.415Z,25.31
2018-08-19T18:18:01.675Z,25.19
2018-08-19T18:20:36.626Z,25.14
2018-08-19T18:23:07.887Z,25.13
2018-08-19T18:25:36.680Z,25.08
2018-08-19T18:28:11.465Z,25.01
2018-08-19T18:30:40.401Z,24.96
2018-08-19T18:33:09.581Z,24.92
2018-08-19T18:35:38.391Z,24.84
2018-08-19T18:38:17.044Z,24.77
2018-08-19T18:40:46.034Z,24.70
2018-08-19T18:43:14.885Z,24.67
2018-08-19T18:45:46.607Z,24.62
2018-08-19T18:48:16.090Z,24.58
2018-08-19T18:50:44.913Z,24.56
2018-08-19T18:53:13.774Z,24.54
2018-08-19T18:55:42.830Z,24.52
2018-08-19T18:58:11.737Z,24.49
2018-08-19T19:01:00.359Z,24.50
2018-08-19T19:03:29.302Z,24.43
2018-08-19T19:05:58.506Z,24.45
2018-08-19T19:08:27.287Z,24.41
2018-08-19T19:11:10.718Z,24.38
2018-08-19T19:13:39.526Z,24.32
2018-08-19T19:16:08.943Z,24.27
2018-08-19T19:18:37.737Z,24.30
2018-08-19T19:21:07.256Z,24.39
2018-08-19T19:23:37.590Z,24.34
2018-08-19T19:26:07.596Z,24.28
2018-08-19T19:28:36.459Z,24.19
2018-08-19T19:31:11.106Z,24.15
2018-08-19T19:33:39.878Z,24.16
2018-08-19T19:36:13.970Z,24.11
2018-08-19T19:38:54.164Z,24.05
2018-08-19T19:41:28.058Z,23.96
2018-08-19T19:43:56.869Z,23.95
2018-08-19T19:46:26.002Z,23.93
2018-08-19T19:48:55.190Z,23.85
2018-08-19T19:51:24.020Z,23.85
2018-08-19T19:53:52.839Z,23.80
2018-08-19T19:56:21.627Z,23.77
2018-08-19T19:58:51.968Z,23.79
2018-08-19T20:01:20.821Z,23.71
2018-08-19T20:03:54.920Z,23.63
2018-08-19T20:06:24.189Z,23.55
2018-08-19T20:08:53.374Z,23.56
2018-08-19T20:11:30.263Z,23.54
2018-08-19T20:14:00.764Z,23.43
2018-08-19T20:16:29.568Z,23.32
2018-08-19T20:18:58.382Z,23.33
2018-08-19T20:21:28.443Z,23.37
2018-08-19T20:23:58.402Z,23.40
2018-08-19T20:26:27.691Z,23.34
2018-08-19T20:28:58.679Z,23.34
2018-08-19T20:31:27.523Z,23.33
2018-08-19T20:33:56.371Z,23.31
2018-08-19T20:36:25.597Z,23.33
2018-08-19T20:38:54.446Z,23.33
2018-08-19T20:41:23.290Z,23.33
2018-08-19T20:43:52.182Z,23.39
2018-08-19T20:46:21.024Z,23.40
2018-08-19T20:48:49.910Z,23.41
2018-08-19T20:51:18.730Z,23.39
2018-08-19T20:53:47.542Z,23.34
2018-08-19T20:56:16.334Z,23.31
2018-08-19T20:58:45.177Z,23.27
2018-08-19T21:01:19.296Z,23.32
2018-08-19T21:03:48.082Z,23.32
2018-08-19T21:06:16.913Z,23.30
2018-08-19T21:08:45.699Z,23.31
2018-08-19T21:11:14.494Z,23.27
2018-08-19T21:13:43.292Z,23.22
2018-08-19T21:16:12.066Z,23.17
2018-08-19T21:18:40.925Z,23.18
2018-08-19T21:21:09.778Z,23.17
2018-08-19T21:23:38.641Z,23.21
2018-08-19T21:26:07.551Z,23.27
2018-08-19T21:28:36.362Z,23.24
2018-08-19T21:31:11.766Z,23.12
2018-08-19T21:33:40.608Z,23.09
2018-08-19T21:36:09.552Z,23.09
2018-08-19T21:38:38.342Z,23.10
2018-08-19T21:41:07.122Z,23.13
2018-08-19T21:43:35.937Z,23.17
2018-08-19T21:46:04.804Z,23.20
2018-08-19T21:48:33.591Z,23.22
2018-08-19T21:51:02.385Z,23.23
2018-08-19T21:53:31.174Z,23.27
2018-08-19T21:55:59.944Z,23.26
2018-08-19T21:58:28.796Z,23.24
2018-08-19T22:01:02.503Z,23.26
2018-08-19T22:03:51.938Z,23.24
2018-08-19T22:06:20.763Z,23.22
2018-08-19T22:08:49.609Z,23.17
2018-08-19T22:11:18.465Z,23.10
2018-08-19T22:13:47.307Z,22.95
2018-08-19T22:16:16.119Z,22.86
2018-08-19T22:18:45.011Z,22.73
2018-08-19T22:21:18.917Z,22.57
2018-08-19T22:23:50.138Z,22.52
2018-08-19T22:26:20.024Z,22.44
2018-08-19T22:29:51.815Z,22.36
2018-08-19T22:32:20.683Z,22.33
2018-08-19T22:34:49.510Z,22.32
2018-08-19T22:37:18.364Z,22.31
2018-08-19T22:39:48.153Z,22.26
2018-08-19T22:42:17.133Z,22.19
2018-08-19T22:44:46.097Z,22.13
2018-08-19T22:47:14.886Z,22.12
2018-08-19T22:49:43.711Z,22.03
2018-08-19T22:52:19.896Z,21.90
2018-08-19T22:54:50.424Z,21.77
2018-08-19T22:57:19.253Z,21.81
2018-08-19T22:59:48.091Z,21.80
2018-08-19T23:02:17.291Z,21.75
2018-08-19T23:04:46.831Z,21.74
2018-08-19T23:07:15.713Z,21.65
2018-08-19T23:09:44.573Z,21.54
2018-08-19T23:12:13.344Z,21.36
2018-08-19T23:14:53.074Z,21.31
2018-08-19T23:17:22.255Z,21.32
2018-08-19T23:19:51.964Z,21.32
2018-08-19T23:22:20.816Z,21.37
2018-08-19T23:24:49.624Z,21.36
2018-08-19T23:27:18.390Z,21.34
2018-08-19T23:29:47.215Z,21.34
2018-08-19T23:32:16.090Z,21.34
2018-08-19T23:34:44.854Z,21.31
2018-08-19T23:37:13.606Z,21.30
2018-08-19T23:39:42.402Z,21.28
2018-08-19T23:42:11.198Z,21.26
2018-08-19T23:44:40.048Z,21.19
2018-08-19T23:47:08.872Z,21.13
2018-08-19T23:49:37.663Z,21.07
2018-08-19T23:52:06.550Z,21.06
2018-08-19T23:54:35.355Z,21.06
2018-08-19T23:57:04.493Z,21.02
2018-08-19T23:59:35.935Z,21.01
